Time;durP1;ratioP1;P1;durP2;ratioP2;P2;SDS_P1;SDS_P2;PMS_P1;PMS_P2;Temp;Humidity;BMP_temperature;BMP_pressure;BME280_temperature;BME280_humidity;BME280_pressure;Samples;Min_cycle;Max_cycle;Signal;HPM_P1;HPM_P2
2022/01/11 00:00:37;;;;;;;10.77;5.88;;;;;;;11.05;77.89;101043.16;4994976;28;20068;-96
2022/01/11 00:12:14;;;;;;;10.18;5.78;;;;;;;11.05;77.61;101041.47;4996214;28;20026;-96
2022/01/11 00:18:01;;;;;;;10.57;5.88;;;;;;;11.06;77.81;101087.66;4994386;28;20060;-95
2022/01/11 00:28:32;;;;;;;10.77;5.88;;;;;;;10.93;77.92;101067.78;4980181;28;20091;-94
2022/01/11 00:34:21;;;;;;;9.60;5.22;;;;;;;10.96;78.20;101078.44;4994217;28;20563;-95
2022/01/11 00:40:09;;;;;;;10.45;5.78;;;;;;;11.28;77.58;101108.09;4994727;28;20045;-93
2022/01/11 00:45:57;;;;;;;10.52;5.53;;;;;;;11.16;78.05;101125.69;4994257;28;20057;-94
2022/01/11 00:51:44;;;;;;;12.32;5.60;;;;;;;11.00;78.46;101085.59;4975732;28;20084;-95
2022/01/11 00:57:31;;;;;;;11.15;5.75;;;;;;;11.12;78.06;101119.38;4986840;28;20072;-95
2022/01/11 01:03:20;;;;;;;10.80;5.25;;;;;;;11.07;77.40;101078.09;4994590;28;20049;-95
2022/01/11 01:08:48;;;;;;;10.05;5.88;;;;;;;11.07;77.73;101099.03;4993613;28;19917;-94
2022/01/11 01:14:35;;;;;;;8.77;5.57;;;;;;;10.97;77.30;101095.00;4993793;28;20040;-94
2022/01/11 01:20:22;;;;;;;10.98;5.50;;;;;;;10.96;77.66;101103.63;4994065;28;20041;-95
2022/01/11 01:30:39;;;;;;;9.73;5.18;;;;;;;10.78;77.75;101106.97;4954954;29;20068;-93
2022/01/11 01:36:27;;;;;;;10.02;6.15;;;;;;;10.90;78.23;101156.44;4970696;28;20029;-94
2022/01/11 01:41:56;;;;;;;8.27;5.43;;;;;;;11.08;77.57;101167.06;4978684;28;20332;-94
2022/01/11 01:47:43;;;;;;;11.77;6.10;;;;;;;11.03;77.63;101162.38;4997446;28;20104;-95
2022/01/11 01:53:31;;;;;;;9.60;5.82;;;;;;;10.91;78.15;101184.38;4997239;28;20069;-93
2022/01/11 01:59:18;;;;;;;8.75;5.07;;;;;;;10.90;78.44;101184.25;4977409;28;20046;-93
2022/01/11 02:05:06;;;;;;;9.27;5.35;;;;;;;10.64;78.12;101136.59;4977422;28;20042;-93
2022/01/11 02:10:54;;;;;;;8.07;5.38;;;;;;;10.83;77.77;101149.03;4996395;28;20113;-94
2022/01/11 02:16:42;;;;;;;10.90;5.65;;;;;;;10.79;77.40;101150.59;4996650;28;20392;-93
2022/01/11 02:22:29;;;;;;;9.52;5.68;;;;;;;10.79;77.32;101141.84;4996461;28;20045;-93
2022/01/11 02:32:53;;;;;;;8.18;5.43;;;;;;;10.86;77.36;101141.41;5016001;28;20037;-93
2022/01/11 02:38:40;;;;;;;8.63;5.35;;;;;;;10.88;77.73;101162.38;5014173;28;20048;-94
2022/01/11 02:44:28;;;;;;;9.82;5.25;;;;;;;10.72;77.00;101144.91;5014892;28;20036;-94
2022/01/11 02:50:16;;;;;;;8.88;5.40;;;;;;;10.79;77.49;101157.50;5009699;28;20068;-92
2022/01/11 02:56:04;;;;;;;10.13;4.80;;;;;;;10.80;78.01;101172.38;5015303;28;20083;-94
2022/01/11 03:01:50;;;;;;;8.15;4.80;;;;;;;10.80;77.31;101159.31;4995934;28;20037;-94
2022/01/11 03:07:40;;;;;;;8.05;5.35;;;;;;;10.64;77.13;101120.03;4995992;28;20057;-94
2022/01/11 03:13:27;;;;;;;7.85;5.25;;;;;;;10.80;76.75;101154.09;4995639;28;20045;-94
2022/01/11 03:19:14;;;;;;;8.73;4.95;;;;;;;10.58;77.41;101178.03;5000386;28;20032;-94
2022/01/11 03:25:05;;;;;;;8.15;4.45;;;;;;;10.73;77.04;101151.91;4993243;28;20100;-93
2022/01/11 03:35:33;;;;;;;8.15;5.00;;;;;;;10.65;77.47;101161.94;4975633;28;20042;-94
2022/01/11 03:41:20;;;;;;;7.93;4.78;;;;;;;10.63;77.18;101165.25;4994005;28;20069;-93
2022/01/11 03:47:07;;;;;;;9.20;5.50;;;;;;;10.79;77.43;101199.31;4994700;28;20073;-91
2022/01/11 03:53:00;;;;;;;7.88;5.15;;;;;;;10.77;76.91;101211.38;4995081;28;20117;-92
2022/01/11 03:58:49;;;;;;;6.82;4.60;;;;;;;10.75;76.80;101228.66;4994498;28;20049;-92
2022/01/11 04:04:36;;;;;;;7.75;4.90;;;;;;;10.36;77.07;101168.00;4994694;28;20114;-91
2022/01/11 04:10:24;;;;;;;9.20;4.78;;;;;;;10.82;76.92;101269.16;4975147;28;20044;-94
2022/01/11 04:16:11;;;;;;;7.75;4.93;;;;;;;10.49;76.63;101214.94;4975056;28;20037;-94
2022/01/11 04:21:58;;;;;;;7.88;4.60;;;;;;;10.50;76.99;101242.84;4994068;28;20049;-96
2022/01/11 04:27:46;;;;;;;7.60;4.60;;;;;;;10.61;77.04;101269.63;4994462;28;20532;-93
2022/01/11 04:37:46;;;;;;;9.35;4.68;;;;;;;10.58;77.11;101295.53;4993825;28;19936;-94
2022/01/11 04:43:34;;;;;;;7.60;4.80;;;;;;;10.58;77.06;101311.22;4993702;28;20121;-93
2022/01/11 04:49:21;;;;;;;8.68;4.88;;;;;;;10.64;76.63;101322.03;4993696;28;20118;-93
2022/01/11 04:55:09;;;;;;;6.97;4.68;;;;;;;10.62;76.33;101347.16;4993193;28;20034;-92
2022/01/11 05:00:57;;;;;;;7.28;4.82;;;;;;;10.47;76.94;101330.53;4994014;28;20030;-92
2022/01/11 05:06:44;;;;;;;7.80;4.53;;;;;;;10.58;76.44;101351.31;4993657;28;20037;-92
2022/01/11 05:12:33;;;;;;;7.72;5.18;;;;;;;10.49;76.89;101362.88;4993783;28;20041;-93
2022/01/11 05:18:21;;;;;;;9.57;5.38;;;;;;;10.52;76.50;101370.88;4993596;28;20033;-94
2022/01/11 05:24:08;;;;;;;9.77;5.75;;;;;;;10.60;76.22;101377.50;4993518;28;20021;-94
2022/01/11 05:29:37;;;;;;;8.73;5.07;;;;;;;10.27;76.34;101332.75;4993517;28;19940;-93
2022/01/11 05:35:25;;;;;;;9.48;5.80;;;;;;;10.30;76.42;101360.78;4991649;28;20101;-92
2022/01/11 05:41:13;;;;;;;8.90;5.68;;;;;;;10.45;76.47;101395.69;4990843;28;20507;-94
2022/01/11 05:47:00;;;;;;;9.60;5.53;;;;;;;10.47;76.35;101417.59;4993813;28;20077;-94
2022/01/11 05:52:49;;;;;;;9.48;6.03;;;;;;;10.30;76.84;101421.72;4994132;28;20032;-94
2022/01/11 05:58:36;;;;;;;9.23;5.55;;;;;;;10.11;76.79;101374.31;4993464;28;20064;-95
2022/01/11 06:04:24;;;;;;;9.63;5.97;;;;;;;10.21;76.52;101400.22;4993431;28;20543;-90
2022/01/11 06:10:12;;;;;;;10.52;6.47;;;;;;;10.16;76.53;101381.66;4993645;28;20142;-94
2022/01/11 06:15:59;;;;;;;8.95;5.88;;;;;;;10.30;76.54;101444.31;4973544;28;20582;-94
2022/01/11 06:21:46;;;;;;;12.05;6.90;;;;;;;10.25;76.11;101403.94;4995314;28;20037;-92
2022/01/11 06:27:34;;;;;;;10.10;6.72;;;;;;;10.39;76.21;101440.63;4977216;28;20037;-95
2022/01/11 06:33:21;;;;;;;10.80;6.78;;;;;;;10.09;76.31;101423.78;4995754;28;20165;-93
2022/01/11 06:39:09;;;;;;;10.38;6.70;;;;;;;10.07;76.94;101437.53;4984263;28;20037;-92
2022/01/11 06:44:56;;;;;;;12.30;6.85;;;;;;;10.27;76.35;101483.25;4978875;28;20106;-96
2022/01/11 06:50:43;;;;;;;11.73;7.35;;;;;;;10.09;76.56;101493.34;4985631;28;20041;-95
2022/01/11 06:56:31;;;;;;;10.80;6.72;;;;;;;10.08;76.89;101510.72;4995249;28;20032;-96
2022/01/11 07:02:18;;;;;;;13.57;7.15;;;;;;;9.98;76.95;101501.34;4995902;28;20053;-92
2022/01/11 07:08:05;;;;;;;12.02;6.95;;;;;;;9.92;76.83;101515.69;4990298;28;20034;-94
2022/01/11 07:13:52;;;;;;;13.80;7.47;;;;;;;10.04;76.81;101526.97;4984542;28;20030;-96
2022/01/11 07:19:40;;;;;;;12.38;7.25;;;;;;;9.84;76.78;101574.25;4976351;28;20038;-93
2022/01/11 07:25:30;;;;;;;11.65;7.53;;;;;;;10.13;76.03;101597.16;4995318;28;20126;-92
2022/01/11 07:31:17;;;;;;;13.02;8.07;;;;;;;10.03;76.61;101594.69;4995637;28;20094;-92
2022/01/11 07:40:43;;;;;;;13.90;7.82;;;;;;;10.21;76.44;101597.69;4975773;28;20042;-95
2022/01/11 07:46:31;;;;;;;11.93;7.68;;;;;;;10.10;76.28;101591.72;4995776;28;20081;-94
2022/01/11 07:51:59;;;;;;;14.48;7.90;;;;;;;9.84;76.36;101567.34;4998378;28;19929;-94
2022/01/11 07:57:46;;;;;;;16.27;8.80;;;;;;;9.78;76.16;101535.63;4995753;28;20089;-94
2022/01/11 08:03:34;;;;;;;14.43;8.07;;;;;;;10.00;76.22;101603.22;5004790;28;20041;-96
2022/01/11 08:09:21;;;;;;;14.40;8.27;;;;;;;9.86;76.20;101606.56;5001088;28;20037;-93
2022/01/11 08:15:09;;;;;;;12.95;8.10;;;;;;;9.94;75.48;101588.03;4997639;28;20105;-95
2022/01/11 08:20:56;;;;;;;13.88;8.27;;;;;;;9.89;75.91;101591.16;5003766;28;20069;-96
2022/01/11 08:26:43;;;;;;;15.18;8.40;;;;;;;9.96;76.16;101609.03;5002390;28;20041;-96
2022/01/11 08:32:31;;;;;;;15.45;9.10;;;;;;;10.02;75.52;101591.19;4997541;28;20129;-94
2022/01/11 08:42:12;;;;;;;14.50;8.70;;;;;;;9.79;75.55;101571.31;4989860;28;20069;-96
2022/01/11 08:48:04;;;;;;;14.15;8.82;;;;;;;9.83;76.20;101607.25;5015618;28;20489;-96
2022/01/11 08:53:52;;;;;;;16.67;9.80;;;;;;;9.54;75.69;101613.00;4995868;28;20085;-93
2022/01/11 08:59:39;;;;;;;15.80;9.80;;;;;;;9.66;75.31;101610.38;4981025;28;20065;-92
2022/01/11 09:05:26;;;;;;;18.85;10.13;;;;;;;9.54;75.70;101571.28;4995359;28;20037;-92
2022/01/11 09:11:13;;;;;;;17.73;10.07;;;;;;;9.57;75.47;101603.72;4993746;28;20452;-93
2022/01/11 09:17:02;;;;;;;19.33;11.13;;;;;;;9.63;75.28;101617.97;4974547;28;20041;-93
2022/01/11 09:22:49;;;;;;;19.13;10.80;;;;;;;9.65;75.30;101639.84;4993912;28;20035;-93
2022/01/11 09:28:37;;;;;;;20.50;11.75;;;;;;;9.49;75.59;101640.47;4993819;28;20029;-92
2022/01/11 09:34:24;;;;;;;20.10;11.52;;;;;;;9.39;74.65;101610.22;4986406;28;20029;-92
2022/01/11 09:44:26;;;;;;;20.08;11.45;;;;;;;9.59;74.71;101640.34;4983825;28;20061;-93
2022/01/11 09:50:15;;;;;;;24.17;12.90;;;;;;;9.27;75.23;101617.13;4985152;28;20054;-91
2022/01/11 09:56:04;;;;;;;24.58;12.77;;;;;;;9.23;74.77;101599.47;5015646;28;20047;-92
2022/01/11 10:01:52;;;;;;;22.13;13.00;;;;;;;9.56;74.51;101627.06;5002371;28;20037;-91
2022/01/11 10:07:41;;;;;;;20.45;12.70;;;;;;;9.12;74.89;101575.22;4988265;28;20033;-91
2022/01/11 10:13:34;;;;;;;23.60;12.95;;;;;;;9.48;74.70;101662.09;4997074;28;20029;-91
2022/01/11 10:19:28;;;;;;;24.05;13.15;;;;;;;9.21;74.33;101591.56;4997690;28;20041;-90
2022/01/11 10:25:16;;;;;;;26.85;12.88;;;;;;;9.48;74.58;101654.28;4984337;28;20041;-91
2022/01/11 10:31:03;;;;;;;22.83;12.73;;;;;;;9.27;74.36;101622.34;4996895;28;20037;-90
2022/01/11 10:36:51;;;;;;;22.23;13.45;;;;;;;9.19;74.08;101624.41;4981433;28;20112;-90
2022/01/11 10:47:29;;;;;;;;;;;;;;;9.36;74.60;101660.44;4977210;28;20045;-90
2022/01/11 10:53:17;;;;;;;23.70;13.68;;;;;;;9.08;74.22;101636.66;4991983;28;20046;-91
2022/01/11 10:59:10;;;;;;;21.75;13.90;;;;;;;9.25;74.48;101686.47;4994730;28;20554;-89
2022/01/11 11:04:58;;;;;;;25.45;13.90;;;;;;;8.93;74.00;101612.06;4993502;28;20065;-92
2022/01/11 11:10:49;;;;;;;23.92;14.55;;;;;;;9.02;74.45;101635.31;4995613;28;20427;-91
2022/01/11 11:16:38;;;;;;;24.83;14.23;;;;;;;9.23;74.29;101672.44;4995272;28;20134;-90
2022/01/11 11:22:29;;;;;;;24.65;14.65;;;;;;;9.11;74.29;101672.44;4996419;28;20093;-91
2022/01/11 11:28:17;;;;;;;27.15;15.77;;;;;;;8.99;74.48;101663.72;4995443;28;20035;-90
2022/01/11 11:34:07;;;;;;;26.25;15.68;;;;;;;8.92;73.96;101655.44;4986815;28;20045;-93
2022/01/11 11:40:01;;;;;;;28.08;15.82;;;;;;;9.08;73.87;101678.34;4985781;28;20046;-92
2022/01/11 11:50:30;;;;;;;26.00;14.88;;;;;;;8.72;74.14;101664.38;4976072;28;20184;-92
2022/01/11 11:56:25;;;;;;;26.10;14.63;;;;;;;9.05;73.81;101757.97;4992261;28;20048;-92
2022/01/11 12:02:12;;;;;;;26.02;14.30;;;;;;;8.87;74.88;101747.97;4992507;28;20057;-94
2022/01/11 12:08:36;;;;;;;26.13;14.80;;;;;;;9.04;74.17;101735.28;4995380;28;20029;-92
2022/01/11 12:14:36;;;;;;;29.75;15.70;;;;;;;8.88;74.20;101743.66;4995078;28;20396;-93
2022/01/11 12:20:38;;;;;;;26.38;15.40;;;;;;;8.98;74.50;101768.72;5007193;28;20036;-91
2022/01/11 12:26:29;;;;;;;24.30;14.88;;;;;;;8.87;74.48;101774.03;4993793;28;20033;-93
2022/01/11 12:32:18;;;;;;;23.45;14.20;;;;;;;9.00;73.50;101803.63;5012177;28;20072;-93
2022/01/11 12:38:08;;;;;;;25.77;15.95;;;;;;;9.01;74.01;101816.75;4993100;28;20049;-93
2022/01/11 12:44:14;;;;;;;25.80;15.52;;;;;;;8.96;73.68;101813.78;5002034;28;20049;-94
2022/01/11 12:50:05;;;;;;;28.13;16.35;;;;;;;8.73;73.32;101746.91;5005321;28;20061;-93
2022/01/11 12:55:57;;;;;;;26.60;15.07;;;;;;;8.82;73.65;101798.78;5004554;28;20496;-94
2022/01/11 13:01:44;;;;;;;22.40;14.10;;;;;;;8.62;73.82;101773.81;5011770;28;20049;-92
2022/01/11 13:07:46;;;;;;;24.98;15.05;;;;;;;8.87;73.87;101819.97;5005360;28;20088;-93
2022/01/11 13:13:41;;;;;;;24.23;14.80;;;;;;;8.52;73.54;101776.47;4994059;28;20054;-93
2022/01/11 13:19:35;;;;;;;23.63;13.70;;;;;;;8.86;73.49;101846.81;4996429;28;20049;-92
2022/01/11 13:25:41;;;;;;;23.98;14.27;;;;;;;8.74;74.09;101837.28;4992561;28;20041;-93
2022/01/11 13:31:32;;;;;;;25.92;14.98;;;;;;;8.61;73.36;101830.97;4999031;28;20523;-93
2022/01/11 13:37:26;;;;;;;22.98;14.13;;;;;;;8.67;73.51;101823.63;4997493;28;20029;-93
2022/01/11 13:43:14;;;;;;;24.08;14.40;;;;;;;8.79;73.11;101854.97;4995810;28;20073;-92
2022/01/11 13:53:42;;;;;;;22.65;13.88;;;;;;;8.59;72.70;101811.72;4977587;28;20066;-93
2022/01/11 13:59:30;;;;;;;22.88;14.48;;;;;;;8.67;73.37;101857.50;4996686;28;20028;-91
2022/01/11 14:05:18;;;;;;;22.73;14.68;;;;;;;8.66;72.81;101863.50;4994346;28;20064;-93
2022/01/11 14:11:07;;;;;;;23.35;14.35;;;;;;;8.69;72.87;101880.25;4979416;28;20033;-91
2022/01/11 14:16:55;;;;;;;20.88;13.82;;;;;;;8.71;72.45;101856.94;4996777;28;20045;-94
2022/01/11 14:22:37;;;;;;;22.08;14.20;;;;;;;8.54;73.29;101879.94;4979349;28;19949;-95
2022/01/11 14:28:27;;;;;;;23.60;14.50;;;;;;;8.40;72.69;101825.84;4995412;28;20080;-92
2022/01/11 14:34:16;;;;;;;24.20;15.25;;;;;;;8.61;73.16;101890.84;4996465;28;20045;-90
2022/01/11 14:40:17;;;;;;;22.30;13.85;;;;;;;8.61;72.67;101899.56;4992094;28;20045;-92
2022/01/11 14:46:23;;;;;;;22.02;13.75;;;;;;;8.52;73.08;101872.81;4995110;28;20061;-93
2022/01/11 14:56:57;;;;;;;24.40;14.30;;;;;;;8.58;72.54;101885.41;4995851;28;20041;-93
2022/01/11 15:02:44;;;;;;;20.30;12.90;;;;;;;8.43;72.60;101870.38;4995408;28;20121;-94
2022/01/11 15:08:32;;;;;;;26.40;13.63;;;;;;;8.41;72.66;101886.66;4994579;28;20068;-93
2022/01/11 15:14:21;;;;;;;21.83;13.10;;;;;;;8.46;72.75;101874.91;4985311;28;20029;-94
2022/01/11 15:19:49;;;;;;;19.90;12.93;;;;;;;8.30;72.32;101886.66;4995609;28;19912;-95
2022/01/11 15:25:37;;;;;;;19.75;12.45;;;;;;;8.33;72.50;101897.31;4995649;28;20049;-93
2022/01/11 15:31:25;;;;;;;20.13;12.63;;;;;;;8.32;72.71;101903.31;4991909;28;20037;-92
2022/01/11 15:37:12;;;;;;;18.50;12.23;;;;;;;8.43;72.26;101918.94;4991657;28;20075;-91
2022/01/11 15:42:59;;;;;;;19.75;12.68;;;;;;;8.39;72.60;101911.63;4975675;28;20093;-90
2022/01/11 15:48:49;;;;;;;19.27;12.60;;;;;;;8.38;72.75;101915.00;4988671;28;20551;-91
2022/01/11 15:59:19;;;;;;;17.08;11.68;;;;;;;8.28;72.06;101910.75;4990960;28;20460;-92
2022/01/11 16:05:08;;;;;;;21.33;12.43;;;;;;;8.15;72.81;101948.78;4989732;28;20092;-92
2022/01/11 16:10:57;;;;;;;18.65;11.82;;;;;;;8.01;72.26;101919.81;4994891;28;20459;-90
2022/01/11 16:16:44;;;;;;;22.08;12.75;;;;;;;8.15;72.14;101940.97;4994369;28;20066;-92
2022/01/11 16:22:32;;;;;;;19.95;12.73;;;;;;;8.36;72.06;102008.59;5004088;28;20029;-90
2022/01/11 16:28:20;;;;;;;19.52;11.93;;;;;;;8.11;71.66;101970.13;4993267;28;20036;-92
2022/01/11 16:33:48;;;;;;;19.17;12.23;;;;;;;8.21;71.91;101997.78;4995012;28;19912;-91
2022/01/11 16:39:42;;;;;;;17.98;12.45;;;;;;;8.18;71.79;101992.34;4994280;28;20085;-94
2022/01/11 16:45:32;;;;;;;18.58;12.32;;;;;;;8.16;71.47;102020.84;5002836;28;20077;-93
2022/01/11 16:51:19;;;;;;;19.15;12.23;;;;;;;7.85;71.87;101960.16;4975427;28;20523;-90
2022/01/11 17:01:55;;;;;;;21.38;12.52;;;;;;;8.12;71.69;102033.47;4955400;29;20133;-90
2022/01/11 17:07:43;;;;;;;18.65;12.77;;;;;;;7.94;72.04;102012.94;4956379;28;20070;-95
2022/01/11 17:19:40;;;;;;;20.50;12.68;;;;;;;7.88;71.91;101993.31;4943740;29;20488;-93
2022/01/11 17:25:29;;;;;;;18.88;12.90;;;;;;;7.89;71.39;102035.03;4935977;29;20166;-90
2022/01/11 17:31:17;;;;;;;19.35;12.68;;;;;;;7.81;71.58;102014.34;4941150;29;20082;-92
2022/01/11 17:37:05;;;;;;;18.52;12.50;;;;;;;8.05;71.67;102089.28;4935376;29;20130;-92
2022/01/11 17:42:53;;;;;;;22.00;12.85;;;;;;;8.05;71.42;102080.56;4936146;29;20067;-94
2022/01/11 17:48:40;;;;;;;19.52;12.05;;;;;;;7.85;72.20;102065.84;4935220;29;20042;-91
2022/01/11 17:54:27;;;;;;;19.67;11.95;;;;;;;8.03;71.88;102075.22;4944773;29;20063;-89
2022/01/11 18:00:17;;;;;;;20.55;12.25;;;;;;;7.98;71.38;102086.94;4942494;29;20078;-93
2022/01/11 18:06:06;;;;;;;20.45;12.52;;;;;;;7.99;71.11;102121.66;4937588;29;20541;-93
2022/01/11 18:11:55;;;;;;;17.48;12.10;;;;;;;7.89;71.57;102094.84;4946385;29;20034;-92
2022/01/11 18:22:24;;;;;;;17.13;11.38;;;;;;;7.58;71.26;102047.09;4956814;29;20050;-91
2022/01/11 18:28:11;;;;;;;17.00;11.48;;;;;;;7.75;71.97;102100.56;4954380;29;20047;-93
2022/01/11 18:33:59;;;;;;;18.88;11.50;;;;;;;7.72;71.58;102119.38;4957327;29;20118;-93
2022/01/11 18:39:47;;;;;;;17.17;11.32;;;;;;;8.01;70.81;102149.63;4942641;29;20046;-93
2022/01/11 18:45:34;;;;;;;18.88;11.65;;;;;;;7.72;71.92;102148.00;4949817;29;20226;-92
2022/01/11 18:51:28;;;;;;;19.98;12.15;;;;;;;7.67;71.38;102120.69;4950609;29;20054;-92
2022/01/11 18:57:16;;;;;;;19.50;12.25;;;;;;;7.67;71.46;102135.38;4945496;29;20050;-93
2022/01/11 19:03:04;;;;;;;20.85;12.63;;;;;;;7.89;70.74;102166.75;4948722;29;20038;-91
2022/01/11 19:08:53;;;;;;;18.83;11.63;;;;;;;7.73;70.63;102155.03;4957147;29;20416;-92
2022/01/11 19:14:44;;;;;;;19.75;11.45;;;;;;;7.77;70.83;102173.47;4956723;29;20038;-94
2022/01/11 19:25:12;;;;;;;21.48;11.88;;;;;;;7.65;71.14;102174.25;4937812;29;20099;-93
2022/01/11 19:31:00;;;;;;;22.17;12.68;;;;;;;7.61;71.49;102194.63;4955478;29;20078;-93
2022/01/11 19:36:47;;;;;;;21.17;12.77;;;;;;;7.69;70.85;102170.22;4939230;29;20123;-91
2022/01/11 19:42:35;;;;;;;21.13;12.23;;;;;;;7.88;70.59;102188.38;4938777;29;20055;-94
2022/01/11 19:48:22;;;;;;;21.75;12.65;;;;;;;7.49;71.53;102171.06;4958410;29;20046;-96
2022/01/11 19:54:11;;;;;;;20.95;11.38;;;;;;;7.61;70.29;102135.75;4937630;29;20406;-91
2022/01/11 19:59:59;;;;;;;21.00;11.52;;;;;;;7.46;70.54;102148.31;4936936;29;20091;-92
2022/01/11 20:05:47;;;;;;;19.73;11.55;;;;;;;7.53;70.82;102128.97;4936985;29;20056;-91
2022/01/11 20:11:39;;;;;;;20.63;11.43;;;;;;;7.55;70.50;102145.59;4960001;28;20054;-95
2022/01/11 20:17:26;;;;;;;22.95;11.65;;;;;;;7.51;70.82;102151.31;4957464;29;20047;-93
2022/01/11 20:27:24;;;;;;;18.20;10.50;;;;;;;7.47;71.07;102154.41;4956831;29;19965;-93
2022/01/11 20:33:15;;;;;;;17.85;10.43;;;;;;;7.40;70.98;102121.78;4953519;29;20050;-92
2022/01/11 20:39:03;;;;;;;16.83;10.27;;;;;;;7.40;70.65;102113.06;4936758;29;20057;-92
2022/01/11 20:45:01;;;;;;;19.48;11.10;;;;;;;7.37;71.29;102134.50;4946496;29;20063;-95
2022/01/11 20:50:56;;;;;;;16.33;10.57;;;;;;;7.31;70.50;102121.88;4954591;29;20034;-93
2022/01/11 20:56:44;;;;;;;19.50;10.32;;;;;;;7.23;71.07;102119.38;4954750;29;20033;-87
2022/01/11 21:02:31;;;;;;;16.92;9.90;;;;;;;7.12;71.36;102139.19;4955303;29;20043;-95
2022/01/11 21:08:21;;;;;;;16.05;9.50;;;;;;;7.07;71.30;102162.16;4946507;29;20449;-93
2022/01/11 21:14:08;;;;;;;17.40;10.02;;;;;;;7.03;70.49;102139.28;4957535;29;20161;-96
2022/01/11 21:20:09;;;;;;;16.88;9.68;;;;;;;7.20;71.19;102163.28;4955856;28;20042;-93
2022/01/11 21:30:39;;;;;;;15.70;9.50;;;;;;;7.23;71.14;102193.03;4943608;29;20038;-95
2022/01/11 21:36:31;;;;;;;15.27;8.68;;;;;;;7.23;71.07;102205.09;4972038;28;20046;-96
2022/01/11 21:42:19;;;;;;;15.02;9.43;;;;;;;6.86;71.20;102152.44;4961069;29;20194;-94
2022/01/11 21:48:06;;;;;;;17.85;9.35;;;;;;;7.17;70.27;102166.50;4947160;29;20078;-93
2022/01/11 21:53:54;;;;;;;17.30;9.55;;;;;;;7.08;70.22;102171.78;4958765;29;20412;-93
2022/01/11 21:59:41;;;;;;;17.23;9.40;;;;;;;7.31;70.21;102154.75;4942402;29;20054;-94
2022/01/11 22:05:33;;;;;;;17.50;9.52;;;;;;;7.06;70.29;102125.66;4957805;29;20030;-92
2022/01/11 22:11:21;;;;;;;20.90;10.90;;;;;;;7.08;70.50;102144.88;4957377;29;20098;-90
2022/01/11 22:22:39;;;;;;;15.85;9.35;;;;;;;6.95;70.35;102142.88;4945196;29;20108;-94
2022/01/11 22:33:07;;;;;;;19.10;10.05;;;;;;;7.18;70.17;102215.09;4957972;29;20098;-95
2022/01/11 22:38:55;;;;;;;19.48;10.15;;;;;;;6.92;70.96;102181.53;4958083;29;20517;-93
2022/01/11 22:44:43;;;;;;;18.02;9.82;;;;;;;6.88;69.95;102175.16;4946974;29;20038;-92
2022/01/11 22:50:11;;;;;;;18.55;9.50;;;;;;;6.92;70.05;102185.06;4958614;29;19913;-92
2022/01/11 22:55:59;;;;;;;20.05;10.57;;;;;;;6.83;70.43;102183.28;4957318;29;20037;-93
2022/01/11 23:01:47;;;;;;;18.42;9.93;;;;;;;6.55;70.98;102170.38;4956609;28;20034;-93
2022/01/11 23:07:41;;;;;;;18.33;9.38;;;;;;;6.72;70.66;102201.38;4957457;29;20094;-90
2022/01/11 23:19:40;;;;;;;18.17;9.20;;;;;;;6.97;70.93;102233.91;4956830;29;20504;-94
2022/01/11 23:25:27;;;;;;;17.60;8.90;;;;;;;6.66;71.32;102231.97;4956366;29;20408;-92
2022/01/11 23:35:59;;;;;;;15.95;8.77;;;;;;;6.77;71.73;102252.84;4970086;29;20034;-95
2022/01/11 23:41:58;;;;;;;13.88;8.52;;;;;;;6.07;70.94;102111.47;5494768;23;20104;-95
2022/01/11 23:54:06;;;;;;;14.10;8.23;;;;;;;6.98;70.38;102298.06;5011659;28;20411;-92
2022/01/11 23:59:53;;;;;;;14.68;8.18;;;;;;;6.44;71.43;102244.63;5014548;28;20034;-93
